Time;durP1;ratioP1;P1;durP2;ratioP2;P2;SDS_P1;SDS_P2;PMS_P1;PMS_P2;Temp;Humidity;BMP_temperature;BMP_pressure;BME280_temperature;BME280_humidity;BME280_pressure;Samples;Min_cycle;Max_cycle;Signal;HPM_P1;HPM_P2
2022/03/25 00:00:29;;;;;;;0.00;0.00;;;;;;;;;;4936554;29;20227;-70
2022/03/25 00:02:56;;;;;;;0.00;0.00;;;;;;;;;;4936564;29;20231;-71
2022/03/25 00:05:24;;;;;;;0.00;0.00;;;;;;;;;;4936479;29;20199;-71
2022/03/25 00:07:52;;;;;;;0.00;0.00;;;;;;;;;;4936402;29;20224;-70
2022/03/25 00:10:20;;;;;;;0.00;0.00;;;;;;;;;;4936402;29;20204;-70
2022/03/25 00:12:49;;;;;;;0.00;0.00;;;;;;;;;;4936021;29;20196;-70
2022/03/25 00:15:17;;;;;;;0.10;0.10;;;;;;;;;;4936328;29;20199;-71
2022/03/25 00:17:44;;;;;;;0.00;0.00;;;;;;;;;;4936449;29;20523;-71
2022/03/25 00:20:12;;;;;;;0.00;0.00;;;;;;;;;;4936227;29;20204;-71
2022/03/25 00:22:40;;;;;;;0.00;0.00;;;;;;;;;;4935884;29;20238;-69
2022/03/25 00:25:08;;;;;;;0.00;0.00;;;;;;;;;;4936215;29;20238;-71
2022/03/25 00:27:35;;;;;;;0.07;0.07;;;;;;;;;;4936183;29;20208;-72
2022/03/25 00:30:04;;;;;;;0.00;0.00;;;;;;;;;;4936310;29;20210;-71
2022/03/25 00:32:32;;;;;;;1.10;1.03;;;;;;;;;;4934681;29;20282;-71
2022/03/25 00:35:00;;;;;;;0.47;0.47;;;;;;;;;;4935890;29;20203;-72
2022/03/25 00:37:27;;;;;;;0.40;0.40;;;;;;;;;;4936108;29;20235;-71
2022/03/25 00:39:57;;;;;;;0.00;0.00;;;;;;;;;;4935862;29;20684;-71
2022/03/25 00:42:24;;;;;;;0.00;0.00;;;;;;;;;;4936111;29;20231;-71
2022/03/25 00:44:53;;;;;;;0.00;0.00;;;;;;;;;;4935526;29;20246;-69
2022/03/25 00:47:23;;;;;;;0.00;0.00;;;;;;;;;;4935575;29;20202;-72
2022/03/25 00:49:51;;;;;;;0.00;0.00;;;;;;;;;;4935690;29;20236;-71
2022/03/25 00:52:19;;;;;;;0.00;0.00;;;;;;;;;;4935454;29;20656;-71
2022/03/25 00:54:46;;;;;;;0.20;0.20;;;;;;;;;;4935356;29;20196;-70
2022/03/25 00:57:16;;;;;;;0.00;0.00;;;;;;;;;;4935670;29;20196;-72
2022/03/25 00:59:43;;;;;;;0.00;0.00;;;;;;;;;;4935525;29;20238;-71
2022/03/25 01:02:11;;;;;;;0.23;0.23;;;;;;;;;;4935424;29;20231;-70
2022/03/25 01:04:39;;;;;;;0.00;0.00;;;;;;;;;;4935193;29;20649;-70
2022/03/25 01:07:07;;;;;;;0.00;0.00;;;;;;;;;;4935306;29;20196;-70
2022/03/25 01:09:34;;;;;;;0.00;0.00;;;;;;;;;;4935222;29;20200;-71
2022/03/25 01:12:02;;;;;;;0.00;0.00;;;;;;;;;;4935149;29;20286;-71
2022/03/25 01:14:29;;;;;;;0.00;0.00;;;;;;;;;;4935182;29;20235;-71
2022/03/25 01:16:57;;;;;;;0.00;0.00;;;;;;;;;;4935165;29;20206;-71
2022/03/25 01:19:25;;;;;;;0.00;0.00;;;;;;;;;;4935123;29;20206;-70
2022/03/25 01:21:54;;;;;;;0.00;0.00;;;;;;;;;;4935136;29;20346;-71
2022/03/25 01:24:21;;;;;;;0.00;0.00;;;;;;;;;;4935368;29;20208;-70
2022/03/25 01:26:49;;;;;;;0.00;0.00;;;;;;;;;;4934866;29;20210;-71
2022/03/25 01:29:16;;;;;;;0.00;0.00;;;;;;;;;;4935036;29;20204;-71
2022/03/25 01:31:44;;;;;;;0.17;0.17;;;;;;;;;;4934910;29;20199;-71
2022/03/25 01:34:11;;;;;;;0.30;0.30;;;;;;;;;;4935087;29;20192;-70
2022/03/25 01:36:39;;;;;;;0.00;0.00;;;;;;;;;;4934726;29;20698;-71
2022/03/25 01:39:08;;;;;;;0.77;0.77;;;;;;;;;;4934788;29;20195;-71
2022/03/25 01:41:35;;;;;;;0.33;0.33;;;;;;;;;;4934693;29;20295;-71
2022/03/25 01:44:04;;;;;;;0.00;0.00;;;;;;;;;;4934436;29;20258;-72
2022/03/25 01:46:32;;;;;;;0.00;0.00;;;;;;;;;;4934415;29;20195;-71
2022/03/25 01:48:59;;;;;;;0.67;0.67;;;;;;;;;;4934871;29;20196;-70
2022/03/25 01:51:30;;;;;;;0.00;0.00;;;;;;;;;;4934784;29;20743;-71
2022/03/25 01:54:01;;;;;;;0.97;0.97;;;;;;;;;;4934747;29;20538;-72
2022/03/25 01:56:30;;;;;;;0.00;0.00;;;;;;;;;;4934614;29;20633;-71
2022/03/25 01:58:57;;;;;;;0.10;0.10;;;;;;;;;;4934247;29;20239;-71
2022/03/25 02:01:26;;;;;;;0.00;0.00;;;;;;;;;;4934681;29;20223;-71
2022/03/25 02:03:54;;;;;;;0.00;0.00;;;;;;;;;;4934419;29;20237;-71
2022/03/25 02:06:22;;;;;;;1.50;1.50;;;;;;;;;;4934527;29;20222;-71
2022/03/25 02:08:50;;;;;;;0.00;0.00;;;;;;;;;;4934455;29;20219;-71
2022/03/25 02:11:19;;;;;;;0.00;0.00;;;;;;;;;;4934295;29;20202;-70
2022/03/25 02:13:48;;;;;;;0.00;0.00;;;;;;;;;;4934674;29;20234;-70
2022/03/25 02:16:15;;;;;;;0.00;0.00;;;;;;;;;;4934593;29;20298;-70
2022/03/25 02:18:43;;;;;;;0.00;0.00;;;;;;;;;;4934257;29;20205;-70
2022/03/25 02:21:10;;;;;;;0.00;0.00;;;;;;;;;;4934473;29;20199;-70
2022/03/25 02:23:39;;;;;;;0.00;0.00;;;;;;;;;;4934210;29;20223;-70
2022/03/25 02:26:07;;;;;;;0.00;0.00;;;;;;;;;;4934262;29;20538;-70
2022/03/25 02:28:35;;;;;;;0.20;0.20;;;;;;;;;;4933834;29;20196;-71
2022/03/25 02:31:02;;;;;;;0.67;0.67;;;;;;;;;;4934349;29;20200;-70
2022/03/25 02:33:30;;;;;;;0.10;0.10;;;;;;;;;;4934164;29;20204;-71
2022/03/25 02:35:57;;;;;;;0.00;0.00;;;;;;;;;;4934140;29;20676;-70
2022/03/25 02:38:25;;;;;;;0.00;0.00;;;;;;;;;;4934038;29;20251;-70
2022/03/25 02:40:54;;;;;;;0.00;0.00;;;;;;;;;;4933962;29;20195;-70
2022/03/25 02:43:21;;;;;;;2.63;1.30;;;;;;;;;;4934247;29;20230;-70
2022/03/25 02:45:49;;;;;;;0.10;0.10;;;;;;;;;;4934222;29;20206;-70
2022/03/25 02:48:16;;;;;;;0.00;0.00;;;;;;;;;;4934201;29;20526;-71
2022/03/25 02:50:46;;;;;;;0.00;0.00;;;;;;;;;;4933902;29;20195;-71
2022/03/25 02:53:15;;;;;;;0.10;0.10;;;;;;;;;;4934748;29;20212;-71
2022/03/25 02:55:43;;;;;;;0.00;0.00;;;;;;;;;;4936098;29;20207;-70
2022/03/25 02:58:12;;;;;;;0.10;0.10;;;;;;;;;;4938095;29;20326;-71
2022/03/25 03:00:42;;;;;;;0.00;0.00;;;;;;;;;;4937975;29;20681;-71
2022/03/25 03:03:09;;;;;;;0.00;0.00;;;;;;;;;;4938223;29;20226;-71
2022/03/25 03:05:37;;;;;;;0.00;0.00;;;;;;;;;;4938255;29;20283;-71
2022/03/25 03:08:04;;;;;;;0.00;0.00;;;;;;;;;;4938447;29;20206;-71
2022/03/25 03:10:32;;;;;;;0.03;0.03;;;;;;;;;;4937760;29;20661;-71
2022/03/25 03:13:00;;;;;;;0.00;0.00;;;;;;;;;;4938216;29;20206;-71
2022/03/25 03:15:29;;;;;;;0.00;0.00;;;;;;;;;;4938140;29;20200;-70
2022/03/25 03:17:57;;;;;;;0.10;0.10;;;;;;;;;;4937946;29;20221;-70
2022/03/25 03:20:25;;;;;;;0.00;0.00;;;;;;;;;;4938139;29;20522;-70
2022/03/25 03:22:53;;;;;;;0.10;0.10;;;;;;;;;;4937844;29;20228;-71
2022/03/25 03:25:20;;;;;;;0.00;0.00;;;;;;;;;;4937992;29;20545;-71
2022/03/25 03:27:47;;;;;;;0.00;0.00;;;;;;;;;;4937931;29;20196;-70
2022/03/25 03:30:15;;;;;;;0.00;0.00;;;;;;;;;;4937781;29;20199;-71
2022/03/25 03:32:44;;;;;;;0.00;0.00;;;;;;;;;;4937453;29;20673;-71
2022/03/25 03:35:12;;;;;;;0.43;0.43;;;;;;;;;;4937642;29;20188;-70
2022/03/25 03:37:43;;;;;;;0.03;0.03;;;;;;;;;;4938010;29;20192;-71
2022/03/25 03:40:11;;;;;;;0.73;0.73;;;;;;;;;;4937818;29;20198;-72
2022/03/25 03:42:39;;;;;;;0.00;0.00;;;;;;;;;;4937474;29;20251;-71
2022/03/25 03:45:08;;;;;;;0.00;0.00;;;;;;;;;;4937438;29;20196;-70
2022/03/25 03:47:36;;;;;;;0.00;0.00;;;;;;;;;;4937602;29;20286;-69
2022/03/25 03:50:05;;;;;;;0.00;0.00;;;;;;;;;;4937661;29;20195;-71
2022/03/25 03:52:32;;;;;;;0.00;0.00;;;;;;;;;;4937264;29;20204;-71
2022/03/25 03:55:00;;;;;;;0.00;0.00;;;;;;;;;;4937302;29;20548;-70
2022/03/25 03:57:27;;;;;;;0.10;0.10;;;;;;;;;;4936984;29;20255;-71
2022/03/25 03:59:55;;;;;;;0.00;0.00;;;;;;;;;;4937245;29;20207;-70
2022/03/25 04:02:23;;;;;;;1.27;1.17;;;;;;;;;;4936998;29;20295;-70
2022/03/25 04:04:51;;;;;;;0.00;0.00;;;;;;;;;;4936941;29;20220;-70
2022/03/25 04:07:20;;;;;;;0.50;0.47;;;;;;;;;;4936962;29;20199;-72
2022/03/25 04:09:48;;;;;;;0.03;0.03;;;;;;;;;;4937270;29;20200;-71
2022/03/25 04:12:16;;;;;;;1.03;1.03;;;;;;;;;;4937217;29;20206;-71
2022/03/25 04:14:44;;;;;;;0.00;0.00;;;;;;;;;;4936922;29;20231;-71
2022/03/25 04:17:12;;;;;;;0.00;0.00;;;;;;;;;;4937163;29;20199;-71
2022/03/25 04:19:39;;;;;;;0.00;0.00;;;;;;;;;;4937107;29;20196;-70
2022/03/25 04:22:07;;;;;;;0.00;0.00;;;;;;;;;;4937221;29;20231;-70
2022/03/25 04:24:36;;;;;;;0.00;0.00;;;;;;;;;;4936487;29;20692;-71
2022/03/25 04:27:04;;;;;;;0.00;0.00;;;;;;;;;;4936781;29;20200;-72
2022/03/25 04:29:31;;;;;;;0.00;0.00;;;;;;;;;;4937090;29;20219;-71
2022/03/25 04:31:59;;;;;;;0.10;0.10;;;;;;;;;;4936798;29;20214;-71
2022/03/25 04:34:26;;;;;;;0.00;0.00;;;;;;;;;;4936789;29;20202;-70
2022/03/25 04:36:53;;;;;;;0.00;0.00;;;;;;;;;;4936569;29;20199;-69
2022/03/25 04:39:21;;;;;;;0.00;0.00;;;;;;;;;;4936565;29;20203;-70
2022/03/25 04:41:50;;;;;;;0.00;0.00;;;;;;;;;;4936982;29;20244;-70
2022/03/25 04:44:17;;;;;;;0.00;0.00;;;;;;;;;;4936551;29;20227;-70
2022/03/25 04:46:45;;;;;;;0.00;0.00;;;;;;;;;;4936280;29;20196;-70
2022/03/25 04:49:13;;;;;;;0.00;0.00;;;;;;;;;;4936420;29;20206;-71
2022/03/25 04:51:41;;;;;;;0.00;0.00;;;;;;;;;;4936182;29;20208;-71
2022/03/25 04:54:09;;;;;;;0.00;0.00;;;;;;;;;;4936250;29;20210;-70
2022/03/25 04:56:36;;;;;;;0.00;0.00;;;;;;;;;;4936326;29;20243;-70
2022/03/25 04:59:05;;;;;;;0.00;0.00;;;;;;;;;;4935985;29;20266;-71
2022/03/25 05:01:32;;;;;;;0.00;0.00;;;;;;;;;;4936034;29;20294;-70
2022/03/25 05:04:00;;;;;;;0.00;0.00;;;;;;;;;;4936023;29;20224;-70
2022/03/25 05:06:28;;;;;;;0.00;0.00;;;;;;;;;;4935795;29;20207;-70
2022/03/25 05:08:56;;;;;;;0.00;0.00;;;;;;;;;;4935940;29;20687;-70
2022/03/25 05:11:23;;;;;;;0.17;0.17;;;;;;;;;;4936266;29;20622;-70
2022/03/25 05:13:51;;;;;;;0.00;0.00;;;;;;;;;;4935921;29;20525;-70
2022/03/25 05:16:20;;;;;;;0.00;0.00;;;;;;;;;;4935999;29;20200;-71
2022/03/25 05:18:47;;;;;;;0.00;0.00;;;;;;;;;;4935091;29;20202;-70
2022/03/25 05:21:14;;;;;;;0.03;0.03;;;;;;;;;;4935857;29;20192;-70
2022/03/25 05:23:42;;;;;;;0.00;0.00;;;;;;;;;;4935567;29;20234;-71
2022/03/25 05:26:09;;;;;;;0.00;0.00;;;;;;;;;;4935658;29;20192;-70
2022/03/25 05:28:37;;;;;;;0.00;0.00;;;;;;;;;;4935510;29;20196;-70
2022/03/25 05:31:05;;;;;;;0.00;0.00;;;;;;;;;;4935626;29;20199;-71
2022/03/25 05:33:34;;;;;;;0.00;0.00;;;;;;;;;;4935457;29;20696;-69
2022/03/25 05:36:01;;;;;;;0.00;0.00;;;;;;;;;;4935457;29;20203;-70
2022/03/25 05:38:30;;;;;;;0.37;0.37;;;;;;;;;;4935431;29;20199;-69
2022/03/25 05:40:57;;;;;;;0.00;0.00;;;;;;;;;;4935522;29;20645;-71
2022/03/25 05:43:24;;;;;;;1.43;0.93;;;;;;;;;;4935566;29;20344;-70
2022/03/25 05:45:52;;;;;;;0.00;0.00;;;;;;;;;;4935347;29;20199;-71
2022/03/25 05:48:20;;;;;;;0.00;0.00;;;;;;;;;;4935596;29;20188;-70
2022/03/25 05:50:49;;;;;;;0.00;0.00;;;;;;;;;;4935156;29;20204;-70
2022/03/25 05:53:17;;;;;;;0.00;0.00;;;;;;;;;;4935336;29;20744;-71
2022/03/25 05:55:44;;;;;;;0.00;0.00;;;;;;;;;;4935293;29;20194;-70
2022/03/25 05:58:12;;;;;;;0.00;0.00;;;;;;;;;;4935041;29;20295;-70
2022/03/25 06:00:40;;;;;;;0.00;0.00;;;;;;;;;;4934823;29;20202;-72
2022/03/25 06:03:08;;;;;;;0.00;0.00;;;;;;;;;;4935009;29;20313;-70
2022/03/25 06:05:36;;;;;;;0.00;0.00;;;;;;;;;;4935049;29;20196;-71
2022/03/25 06:08:05;;;;;;;0.00;0.00;;;;;;;;;;4935318;29;20214;-71
2022/03/25 06:10:33;;;;;;;0.10;0.10;;;;;;;;;;4934963;29;20561;-71
2022/03/25 06:13:00;;;;;;;0.00;0.00;;;;;;;;;;4935021;29;20199;-70
2022/03/25 06:15:28;;;;;;;0.00;0.00;;;;;;;;;;4934972;29;20200;-71
2022/03/25 06:17:55;;;;;;;0.00;0.00;;;;;;;;;;4935121;29;20290;-71
2022/03/25 06:20:24;;;;;;;0.00;0.00;;;;;;;;;;4935410;29;20200;-70
2022/03/25 06:22:52;;;;;;;0.10;0.10;;;;;;;;;;4934815;29;20286;-71
2022/03/25 06:25:21;;;;;;;0.00;0.00;;;;;;;;;;4934957;29;20254;-70
2022/03/25 06:27:49;;;;;;;0.00;0.00;;;;;;;;;;4934908;29;20196;-70
2022/03/25 06:30:18;;;;;;;0.00;0.00;;;;;;;;;;4935718;29;20645;-70
2022/03/25 06:32:45;;;;;;;0.00;0.00;;;;;;;;;;4938796;29;20203;-71
2022/03/25 06:35:13;;;;;;;0.00;0.00;;;;;;;;;;4938916;29;20283;-72
2022/03/25 06:37:42;;;;;;;0.00;0.00;;;;;;;;;;4938900;29;20191;-71
2022/03/25 06:40:10;;;;;;;0.00;0.00;;;;;;;;;;4938606;29;20672;-71
2022/03/25 06:42:40;;;;;;;0.00;0.00;;;;;;;;;;4938472;29;20568;-70
2022/03/25 06:45:09;;;;;;;0.00;0.00;;;;;;;;;;4938723;29;20292;-70
2022/03/25 06:47:37;;;;;;;0.00;0.00;;;;;;;;;;4938514;29;20196;-71
2022/03/25 06:50:05;;;;;;;0.00;0.00;;;;;;;;;;4938651;29;20203;-71
2022/03/25 06:52:33;;;;;;;0.00;0.00;;;;;;;;;;4938801;29;20290;-72
2022/03/25 06:55:01;;;;;;;0.00;0.00;;;;;;;;;;4938704;29;20318;-71
2022/03/25 06:57:28;;;;;;;0.83;0.83;;;;;;;;;;4938172;29;20676;-71
2022/03/25 06:59:58;;;;;;;0.00;0.00;;;;;;;;;;4938637;29;20595;-71
2022/03/25 07:02:25;;;;;;;0.00;0.00;;;;;;;;;;4938401;29;20206;-69
2022/03/25 07:04:53;;;;;;;0.00;0.00;;;;;;;;;;4937824;29;20228;-71
2022/03/25 07:07:25;;;;;;;0.00;0.00;;;;;;;;;;4938054;29;20222;-70
2022/03/25 07:09:53;;;;;;;0.00;0.00;;;;;;;;;;4938563;29;20291;-70
2022/03/25 07:12:20;;;;;;;0.00;0.00;;;;;;;;;;4938256;29;20196;-71
2022/03/25 07:14:48;;;;;;;0.30;0.30;;;;;;;;;;4937969;29;20195;-71
2022/03/25 07:17:18;;;;;;;0.33;0.33;;;;;;;;;;4938003;29;20307;-71
2022/03/25 07:19:45;;;;;;;1.13;1.13;;;;;;;;;;4938123;29;20573;-69
2022/03/25 07:22:13;;;;;;;0.00;0.00;;;;;;;;;;4938245;29;20210;-72
2022/03/25 07:24:41;;;;;;;2.37;2.17;;;;;;;;;;4937521;29;20681;-72
2022/03/25 07:27:08;;;;;;;1.33;0.67;;;;;;;;;;4937870;29;20200;-70
2022/03/25 07:29:36;;;;;;;1.73;1.63;;;;;;;;;;4937821;29;20210;-70
2022/03/25 07:32:04;;;;;;;2.03;1.93;;;;;;;;;;4937819;29;20196;-71
2022/03/25 07:34:35;;;;;;;0.10;0.10;;;;;;;;;;4937388;29;20573;-72
2022/03/25 07:37:03;;;;;;;0.00;0.00;;;;;;;;;;4938163;29;20202;-71
2022/03/25 07:39:31;;;;;;;1.40;1.10;;;;;;;;;;4937645;29;20287;-71
2022/03/25 07:41:58;;;;;;;1.47;1.37;;;;;;;;;;4936913;29;20221;-71
2022/03/25 07:44:25;;;;;;;0.00;0.00;;;;;;;;;;4937531;29;20242;-70
2022/03/25 07:46:53;;;;;;;0.00;0.00;;;;;;;;;;4937349;29;20222;-70
2022/03/25 07:49:21;;;;;;;2.93;0.40;;;;;;;;;;4937318;29;20286;-71
2022/03/25 07:51:50;;;;;;;0.10;0.10;;;;;;;;;;4937367;29;20195;-70
2022/03/25 07:54:18;;;;;;;0.50;0.50;;;;;;;;;;4937432;29;20202;-69
2022/03/25 07:56:45;;;;;;;1.53;1.43;;;;;;;;;;4937206;29;20192;-70
2022/03/25 07:59:13;;;;;;;1.73;1.37;;;;;;;;;;4937113;29;20772;-70
2022/03/25 08:01:41;;;;;;;1.73;1.60;;;;;;;;;;4937219;29;20195;-70
2022/03/25 08:04:08;;;;;;;0.30;0.30;;;;;;;;;;4937075;29;20319;-70
2022/03/25 08:06:36;;;;;;;4.73;2.60;;;;;;;;;;4936762;29;20292;-71
2022/03/25 08:09:04;;;;;;;1.30;1.10;;;;;;;;;;4937340;29;20200;-71
2022/03/25 08:11:32;;;;;;;0.40;0.40;;;;;;;;;;4937134;29;20203;-71
2022/03/25 08:14:00;;;;;;;2.47;2.27;;;;;;;;;;4937134;29;20279;-69
2022/03/25 08:16:28;;;;;;;0.87;0.87;;;;;;;;;;4937207;29;20203;-71
2022/03/25 08:18:56;;;;;;;2.83;0.73;;;;;;;;;;4937137;29;20210;-71
2022/03/25 08:21:23;;;;;;;1.73;0.63;;;;;;;;;;4937110;29;20238;-71
2022/03/25 08:29:22;;;;;;;3.33;3.00;;;;;;;;;;4937016;29;20243;-70
2022/03/25 08:31:49;;;;;;;2.57;2.00;;;;;;;;;;4936747;29;20529;-71
2022/03/25 08:34:17;;;;;;;1.43;1.43;;;;;;;;;;4936716;29;20227;-71
2022/03/25 08:36:45;;;;;;;2.53;2.33;;;;;;;;;;4936536;29;20239;-69
2022/03/25 08:39:13;;;;;;;8.10;4.20;;;;;;;;;;4936498;29;20223;-69
2022/03/25 08:41:43;;;;;;;5.57;4.57;;;;;;;;;;4936677;29;20204;-70
2022/03/25 08:44:10;;;;;;;3.60;1.73;;;;;;;;;;4936281;29;20585;-68
2022/03/25 08:46:39;;;;;;;4.23;2.60;;;;;;;;;;4936593;29;20202;-68
2022/03/25 08:49:07;;;;;;;4.60;3.80;;;;;;;;;;4936339;29;20196;-67
2022/03/25 08:51:34;;;;;;;5.80;4.10;;;;;;;;;;4936323;29;20196;-68
2022/03/25 08:54:02;;;;;;;2.10;1.47;;;;;;;;;;4935646;29;20195;-69
2022/03/25 08:56:30;;;;;;;3.40;2.67;;;;;;;;;;4936137;29;20199;-69
2022/03/25 08:58:59;;;;;;;0.87;0.87;;;;;;;;;;4936085;29;20306;-69
2022/03/25 09:01:27;;;;;;;3.40;2.70;;;;;;;;;;4936217;29;20200;-69
2022/03/25 09:03:55;;;;;;;5.68;4.75;;;;;;;;;;4935976;29;20206;-73
2022/03/25 09:06:22;;;;;;;17.27;9.57;;;;;;;;;;4936209;29;20223;-69
2022/03/25 09:08:51;;;;;;;2.95;1.88;;;;;;;;;;4936041;29;20202;-69
2022/03/25 09:11:20;;;;;;;3.35;3.10;;;;;;;;;;4936045;29;20199;-68
2022/03/25 09:13:47;;;;;;;3.72;3.25;;;;;;;;;;4936032;29;20202;-68
2022/03/25 09:16:16;;;;;;;3.03;2.63;;;;;;;;;;4936117;29;20275;-68
2022/03/25 09:18:44;;;;;;;8.15;3.38;;;;;;;;;;4935727;29;20200;-68
2022/03/25 09:21:11;;;;;;;10.52;5.15;;;;;;;;;;4935805;29;20650;-68
2022/03/25 09:23:39;;;;;;;3.10;2.25;;;;;;;;;;4935983;29;20207;-68
2022/03/25 09:26:06;;;;;;;5.22;4.57;;;;;;;;;;4935912;29;20231;-69
2022/03/25 09:28:34;;;;;;;9.80;4.70;;;;;;;;;;4935825;29;20221;-69
2022/03/25 09:31:01;;;;;;;1.98;1.65;;;;;;;;;;4935644;29;20675;-69
2022/03/25 09:33:30;;;;;;;3.65;2.55;;;;;;;;;;4935527;29;20204;-70
2022/03/25 09:35:57;;;;;;;10.38;7.07;;;;;;;;;;4935543;29;20206;-69
2022/03/25 09:38:25;;;;;;;7.50;3.92;;;;;;;;;;4935429;29;20657;-69
2022/03/25 09:40:53;;;;;;;8.00;4.63;;;;;;;;;;4935290;29;20195;-70
2022/03/25 09:43:22;;;;;;;1.85;1.70;;;;;;;;;;4935406;29;20227;-70
2022/03/25 09:45:50;;;;;;;9.07;4.20;;;;;;;;;;4935671;29;20235;-69
2022/03/25 09:48:17;;;;;;;2.55;2.35;;;;;;;;;;4935500;29;20676;-70
2022/03/25 09:50:46;;;;;;;2.17;2.08;;;;;;;;;;4935381;29;20199;-69
2022/03/25 09:53:14;;;;;;;2.47;2.27;;;;;;;;;;4935261;29;20196;-69
2022/03/25 09:55:44;;;;;;;8.88;5.30;;;;;;;;;;4935456;29;20624;-70
2022/03/25 09:58:18;;;;;;;10.52;3.42;;;;;;;;;;4934868;29;20317;-70
2022/03/25 10:00:49;;;;;;;9.38;4.90;;;;;;;;;;4935272;29;20196;-70
2022/03/25 10:03:23;;;;;;;25.25;8.60;;;;;;;;;;4935070;29;20196;-70
2022/03/25 10:05:59;;;;;;;5.38;4.80;;;;;;;;;;4935012;29;20262;-69
2022/03/25 10:08:31;;;;;;;5.82;3.33;;;;;;;;;;4935111;29;20266;-70
2022/03/25 10:10:58;;;;;;;1.70;1.60;;;;;;;;;;4935336;29;20192;-70
2022/03/25 10:13:27;;;;;;;5.10;4.53;;;;;;;;;;4935347;29;20196;-69
2022/03/25 10:15:54;;;;;;;6.07;4.68;;;;;;;;;;4934965;29;20196;-70
2022/03/25 10:18:22;;;;;;;5.30;2.88;;;;;;;;;;4935068;29;20195;-70
2022/03/25 10:20:54;;;;;;;10.40;5.32;;;;;;;;;;4935237;29;20203;-69
2022/03/25 10:23:23;;;;;;;7.15;5.93;;;;;;;;;;4934861;29;20630;-71
2022/03/25 10:25:51;;;;;;;6.05;5.53;;;;;;;;;;4935120;29;20628;-70
2022/03/25 10:28:24;;;;;;;4.72;3.28;;;;;;;;;;4935177;29;20203;-71
2022/03/25 10:30:52;;;;;;;3.78;3.20;;;;;;;;;;4934708;29;20206;-71
2022/03/25 10:33:24;;;;;;;11.05;6.95;;;;;;;;;;4934996;29;20206;-70
2022/03/25 10:35:55;;;;;;;6.00;4.65;;;;;;;;;;4934938;29;20235;-70
2022/03/25 10:38:25;;;;;;;1.95;1.83;;;;;;;;;;4935059;29;20721;-71
2022/03/25 10:43:36;;;;;;;2.20;2.03;;;;;;;;;;4914991;29;20281;-71
2022/03/25 10:46:06;;;;;;;9.88;5.70;;;;;;;;;;4927878;29;20235;-70
2022/03/25 10:48:34;;;;;;;2.15;1.95;;;;;;;;;;4918825;29;20200;-71
2022/03/25 10:51:03;;;;;;;2.88;2.72;;;;;;;;;;4913756;29;20196;-71
2022/03/25 10:53:33;;;;;;;8.73;6.20;;;;;;;;;;4913460;29;20196;-71
2022/03/25 10:56:07;;;;;;;8.20;2.30;;;;;;;;;;4914772;29;20208;-70
2022/03/25 10:58:35;;;;;;;6.40;4.72;;;;;;;;;;4924794;29;20352;-71
2022/03/25 11:01:03;;;;;;;8.70;4.90;;;;;;;;;;4915132;29;20240;-69
2022/03/25 11:03:31;;;;;;;8.43;6.03;;;;;;;;;;4913594;29;20199;-70
2022/03/25 11:05:59;;;;;;;5.57;4.40;;;;;;;;;;4913422;29;20724;-70
2022/03/25 11:08:26;;;;;;;9.30;5.43;;;;;;;;;;4913407;29;20196;-69
2022/03/25 11:10:58;;;;;;;5.27;4.53;;;;;;;;;;4913224;29;20203;-70
2022/03/25 11:13:27;;;;;;;2.97;2.67;;;;;;;;;;4915032;29;20287;-70
2022/03/25 11:15:55;;;;;;;11.03;6.63;;;;;;;;;;4934902;29;20289;-69
2022/03/25 11:18:23;;;;;;;10.00;3.83;;;;;;;;;;4938005;29;20660;-68
2022/03/25 11:20:53;;;;;;;7.67;5.23;;;;;;;;;;4937816;29;20211;-70
2022/03/25 11:23:23;;;;;;;8.57;4.80;;;;;;;;;;4937694;29;20192;-69
2022/03/25 11:25:52;;;;;;;5.70;3.37;;;;;;;;;;4937574;29;20677;-69
2022/03/25 11:28:28;;;;;;;5.33;4.17;;;;;;;;;;4937729;29;20196;-69
2022/03/25 11:30:58;;;;;;;4.93;3.40;;;;;;;;;;4937580;29;20282;-69
2022/03/25 11:33:26;;;;;;;4.43;2.72;;;;;;;;;;4937832;29;20565;-69
2022/03/25 11:36:08;;;;;;;14.75;7.47;;;;;;;;;;4937606;29;20279;-71
2022/03/25 11:38:35;;;;;;;6.45;4.28;;;;;;;;;;4937525;29;20286;-70
2022/03/25 11:41:22;;;;;;;2.80;2.63;;;;;;;;;;4937899;29;20195;-70
2022/03/25 11:44:04;;;;;;;4.70;4.30;;;;;;;;;;4937584;29;20814;-70
2022/03/25 11:46:34;;;;;;;11.50;4.93;;;;;;;;;;4937387;29;20226;-70
2022/03/25 11:49:19;;;;;;;4.10;2.58;;;;;;;;;;4937709;29;20251;-71
2022/03/25 11:51:46;;;;;;;0.85;0.85;;;;;;;;;;4937598;29;20199;-70
2022/03/25 11:54:36;;;;;;;5.97;4.18;;;;;;;;;;4937438;29;20195;-70
2022/03/25 11:57:06;;;;;;;9.23;3.50;;;;;;;;;;4937563;29;20227;-70
2022/03/25 11:59:49;;;;;;;3.58;2.33;;;;;;;;;;4937163;29;20233;-70
2022/03/25 12:02:32;;;;;;;5.45;4.57;;;;;;;;;;4937440;29;20210;-69
2022/03/25 12:05:00;;;;;;;2.15;1.95;;;;;;;;;;4937336;29;20238;-70
2022/03/25 12:07:28;;;;;;;2.20;1.77;;;;;;;;;;4937079;29;20255;-70
2022/03/25 12:09:55;;;;;;;6.07;5.47;;;;;;;;;;4937078;29;20645;-70
2022/03/25 12:12:38;;;;;;;9.20;4.00;;;;;;;;;;4937277;29;20199;-70
2022/03/25 12:15:11;;;;;;;3.50;2.60;;;;;;;;;;4937400;29;20657;-70
2022/03/25 12:17:40;;;;;;;6.05;3.33;;;;;;;;;;4937004;29;20679;-70
2022/03/25 12:20:09;;;;;;;5.05;3.58;;;;;;;;;;4937146;29;20294;-70
2022/03/25 12:22:38;;;;;;;6.63;3.00;;;;;;;;;;4936945;29;20603;-70
2022/03/25 12:25:08;;;;;;;2.85;2.47;;;;;;;;;;4936794;29;20577;-70
2022/03/25 12:27:37;;;;;;;6.70;4.88;;;;;;;;;;4936805;29;20203;-70
2022/03/25 12:30:06;;;;;;;7.63;5.40;;;;;;;;;;4936723;29;20554;-70
2022/03/25 12:32:36;;;;;;;3.40;2.85;;;;;;;;;;4936385;29;20228;-71
2022/03/25 12:35:06;;;;;;;3.70;3.40;;;;;;;;;;4936867;29;20212;-71
2022/03/25 12:37:38;;;;;;;1.73;1.15;;;;;;;;;;4936973;29;20547;-70
2022/03/25 12:40:16;;;;;;;8.60;6.18;;;;;;;;;;4936707;29;20196;-70
2022/03/25 12:42:44;;;;;;;6.95;5.38;;;;;;;;;;4936122;29;20202;-71
2022/03/25 12:45:12;;;;;;;0.47;0.47;;;;;;;;;;4936343;29;20681;-70
2022/03/25 12:47:43;;;;;;;3.20;1.65;;;;;;;;;;4936718;29;20239;-71
2022/03/25 12:50:17;;;;;;;4.10;3.80;;;;;;;;;;4936200;29;20202;-70
2022/03/25 12:52:44;;;;;;;1.58;1.48;;;;;;;;;;4936334;29;20564;-71
2022/03/25 12:55:15;;;;;;;1.17;1.15;;;;;;;;;;4936332;29;20283;-70
2022/03/25 12:57:42;;;;;;;2.45;1.85;;;;;;;;;;4936151;29;20204;-71
2022/03/25 13:00:11;;;;;;;6.55;2.33;;;;;;;;;;4936544;29;20555;-71
2022/03/25 13:02:40;;;;;;;2.25;2.10;;;;;;;;;;4935941;29;20279;-71
2022/03/25 13:05:11;;;;;;;1.33;1.10;;;;;;;;;;4936169;29;20195;-70
2022/03/25 13:07:44;;;;;;;3.38;2.95;;;;;;;;;;4936051;29;20598;-71
2022/03/25 13:10:12;;;;;;;6.03;5.50;;;;;;;;;;4936240;29;20239;-71
2022/03/25 13:12:41;;;;;;;4.32;3.40;;;;;;;;;;4935856;29;20199;-71
2022/03/25 13:15:10;;;;;;;3.28;3.08;;;;;;;;;;4936253;29;20196;-72
2022/03/25 13:17:39;;;;;;;3.50;2.75;;;;;;;;;;4935936;29;20196;-72
2022/03/25 13:20:09;;;;;;;0.40;0.40;;;;;;;;;;4936048;29;20267;-72
2022/03/25 13:22:38;;;;;;;0.45;0.45;;;;;;;;;;4935750;29;20526;-71
2022/03/25 13:25:09;;;;;;;0.65;0.65;;;;;;;;;;4935790;29;20202;-71
2022/03/25 13:27:36;;;;;;;6.57;4.30;;;;;;;;;;4935859;29;20203;-71
2022/03/25 13:30:05;;;;;;;8.48;4.88;;;;;;;;;;4935772;29;20682;-72
2022/03/25 13:32:34;;;;;;;5.40;4.38;;;;;;;;;;4935505;29;20646;-70
2022/03/25 13:35:02;;;;;;;2.33;2.20;;;;;;;;;;4935882;29;20195;-70
2022/03/25 13:37:30;;;;;;;5.55;2.05;;;;;;;;;;4935708;29;20670;-71
2022/03/25 13:39:58;;;;;;;9.05;4.93;;;;;;;;;;4935154;29;20203;-70
2022/03/25 13:42:33;;;;;;;8.02;6.25;;;;;;;;;;4935452;29;20654;-70
2022/03/25 13:45:07;;;;;;;7.63;4.65;;;;;;;;;;4935533;29;20203;-71
2022/03/25 13:47:36;;;;;;;5.65;4.35;;;;;;;;;;4935411;29;20334;-71
2022/03/25 13:50:19;;;;;;;16.10;4.65;;;;;;;;;;4935394;29;20191;-70
2022/03/25 13:52:59;;;;;;;13.23;6.03;;;;;;;;;;4935461;29;20203;-70
2022/03/25 13:55:34;;;;;;;4.55;4.15;;;;;;;;;;4935172;29;20195;-70
2022/03/25 13:58:05;;;;;;;0.98;0.95;;;;;;;;;;4935255;29;20283;-70
2022/03/25 14:00:35;;;;;;;6.53;4.32;;;;;;;;;;4934984;29;20259;-71
2022/03/25 14:03:04;;;;;;;6.97;4.43;;;;;;;;;;4935524;29;20246;-70
2022/03/25 14:05:33;;;;;;;1.38;1.20;;;;;;;;;;4935043;29;20549;-70
2022/03/25 14:08:00;;;;;;;3.50;2.42;;;;;;;;;;4935142;29;20206;-70
2022/03/25 14:10:29;;;;;;;1.30;1.23;;;;;;;;;;4935403;29;20249;-70
2022/03/25 14:12:57;;;;;;;0.30;0.30;;;;;;;;;;4935015;29;20200;-70
2022/03/25 14:15:28;;;;;;;1.88;1.77;;;;;;;;;;4935173;29;20522;-70
2022/03/25 14:17:55;;;;;;;3.40;2.20;;;;;;;;;;4935062;29;20206;-70
2022/03/25 14:20:23;;;;;;;2.85;2.65;;;;;;;;;;4935204;29;20657;-70
2022/03/25 14:22:52;;;;;;;2.13;2.03;;;;;;;;;;4934725;29;20199;-70
2022/03/25 14:25:21;;;;;;;6.18;5.78;;;;;;;;;;4935209;29;20208;-69
2022/03/25 14:27:51;;;;;;;1.80;1.67;;;;;;;;;;4934953;29;20231;-69
2022/03/25 14:30:19;;;;;;;4.10;3.75;;;;;;;;;;4934986;29;20717;-69
2022/03/25 14:32:49;;;;;;;6.05;2.60;;;;;;;;;;4934652;29;20644;-70
2022/03/25 14:35:18;;;;;;;3.97;3.50;;;;;;;;;;4934945;29;20223;-70
2022/03/25 14:37:47;;;;;;;4.57;2.30;;;;;;;;;;4935003;29;20195;-70
2022/03/25 14:40:15;;;;;;;11.40;5.43;;;;;;;;;;4934873;29;20199;-71
2022/03/25 14:42:42;;;;;;;4.57;3.60;;;;;;;;;;4934922;29;20234;-69
2022/03/25 14:45:10;;;;;;;1.05;0.95;;;;;;;;;;4935055;29;20199;-68
2022/03/25 14:47:38;;;;;;;2.78;2.53;;;;;;;;;;4934732;29;20234;-68
2022/03/25 14:50:09;;;;;;;0.30;0.20;;;;;;;;;;4934812;29;20203;-68
2022/03/25 14:52:37;;;;;;;3.97;1.50;;;;;;;;;;4937480;29;20250;-68
2022/03/25 14:55:06;;;;;;;1.65;1.55;;;;;;;;;;4938391;29;20202;-68
2022/03/25 14:57:34;;;;;;;4.22;3.83;;;;;;;;;;4938290;29;20199;-69
2022/03/25 15:00:02;;;;;;;1.63;1.52;;;;;;;;;;4938367;29;20204;-69